createdAt,value
2023-07-09T00:00:37.009Z,14.70
2023-07-09T00:05:43.030Z,14.88
2023-07-09T00:10:46.831Z,14.65
2023-07-09T00:15:52.690Z,13.07
2023-07-09T00:20:56.394Z,14.77
2023-07-09T00:26:00.498Z,12.97
2023-07-09T00:31:07.425Z,18.98
2023-07-09T00:36:18.043Z,17.20
2023-07-09T00:41:23.672Z,16.48
2023-07-09T00:47:04.346Z,15.98
2023-07-09T00:52:25.217Z,16.77
2023-07-09T00:57:30.037Z,14.50
2023-07-09T01:02:35.346Z,16.92
2023-07-09T01:07:47.368Z,16.17
2023-07-09T01:12:52.645Z,19.35
2023-07-09T01:18:03.281Z,19.13
2023-07-09T01:23:08.926Z,16.92
2023-07-09T01:28:12.562Z,19.13
2023-07-09T01:33:18.910Z,19.53
2023-07-09T01:38:24.007Z,18.15
2023-07-09T01:43:28.155Z,15.18
2023-07-09T01:48:42.758Z,17.00
2023-07-09T01:58:51.635Z,16.42
2023-07-09T02:03:55.161Z,17.17
2023-07-09T02:09:01.160Z,15.70
2023-07-09T02:14:04.983Z,16.35
2023-07-09T02:19:08.772Z,11.83
2023-07-09T02:24:13.824Z,16.77
2023-07-09T02:29:17.678Z,19.25
2023-07-09T02:34:21.554Z,15.30
2023-07-09T02:39:27.448Z,16.20
2023-07-09T02:44:31.028Z,15.70
2023-07-09T02:49:34.640Z,12.23
2023-07-09T02:54:39.720Z,14.93
2023-07-09T02:59:45.885Z,13.52
2023-07-09T03:04:51.108Z,17.98
2023-07-09T03:09:56.111Z,17.48
2023-07-09T03:14:59.678Z,12.57
2023-07-09T03:20:03.422Z,14.60
2023-07-09T03:25:09.711Z,14.13
2023-07-09T03:30:14.244Z,11.82
2023-07-09T03:35:18.032Z,11.20
2023-07-09T03:40:25.496Z,13.63
2023-07-09T03:45:32.540Z,12.20
2023-07-09T03:50:36.180Z,13.10
2023-07-09T03:55:41.131Z,14.55
2023-07-09T04:00:46.776Z,11.05
2023-07-09T04:05:51.752Z,9.98
2023-07-09T04:10:57.786Z,8.50
2023-07-09T04:16:01.650Z,7.88
2023-07-09T04:21:05.781Z,8.50
2023-07-09T04:31:18.327Z,8.65
2023-07-09T04:36:22.455Z,5.80
2023-07-09T04:41:27.629Z,5.28
2023-07-09T04:46:31.737Z,7.35
2023-07-09T04:51:35.753Z,7.30
2023-07-09T04:56:40.774Z,8.20
2023-07-09T05:01:45.789Z,8.70
2023-07-09T05:06:49.721Z,4.47
2023-07-09T05:11:55.281Z,5.25
2023-07-09T05:16:58.806Z,5.07
2023-07-09T05:22:02.954Z,6.60
2023-07-09T05:27:09.494Z,4.85
2023-07-09T05:32:13.133Z,4.15
2023-07-09T05:37:16.696Z,5.97
2023-07-09T05:42:21.749Z,4.13
2023-07-09T05:47:27.451Z,7.90
2023-07-09T05:52:32.904Z,4.63
2023-07-09T05:57:37.960Z,5.35
2023-07-09T06:02:41.713Z,3.97
2023-07-09T06:07:45.454Z,4.05
2023-07-09T06:12:51.204Z,3.92
2023-07-09T06:17:57.454Z,4.13
2023-07-09T06:23:01.766Z,3.95
2023-07-09T06:28:06.848Z,4.63
2023-07-09T06:33:10.764Z,5.90
2023-07-09T06:38:14.337Z,5.30
2023-07-09T06:43:19.476Z,5.47
2023-07-09T06:48:25.382Z,4.53
2023-07-09T06:53:30.760Z,4.25
2023-07-09T06:58:36.097Z,3.88
2023-07-09T07:03:39.933Z,4.65
2023-07-09T07:08:43.696Z,4.78
2023-07-09T07:13:52.966Z,3.95
2023-07-09T07:18:57.922Z,3.90
2023-07-09T07:24:04.511Z,4.03
2023-07-09T07:29:10.082Z,6.38
2023-07-09T07:34:13.756Z,5.50
2023-07-09T07:39:17.753Z,6.10
2023-07-09T07:44:22.680Z,3.30
2023-07-09T07:49:26.363Z,4.13
2023-07-09T07:54:29.954Z,3.47
2023-07-09T07:59:37.950Z,7.05
2023-07-09T08:04:42.373Z,3.88
2023-07-09T08:09:45.974Z,3.53
2023-07-09T08:14:51.143Z,3.42
2023-07-09T08:19:56.476Z,4.05
2023-07-09T08:25:06.082Z,5.00
2023-07-09T08:30:13.552Z,5.70
2023-07-09T08:40:24.766Z,3.88
2023-07-09T08:45:43.153Z,4.68
2023-07-09T08:50:53.645Z,4.20
2023-07-09T08:55:58.361Z,4.30
2023-07-09T09:01:08.130Z,4.63
2023-07-09T09:06:15.343Z,3.75
2023-07-09T09:11:29.693Z,3.50
2023-07-09T09:16:41.279Z,4.57
2023-07-09T09:21:46.362Z,7.68
2023-07-09T09:26:53.969Z,4.65
2023-07-09T09:32:03.478Z,4.07
2023-07-09T09:37:13.186Z,4.90
2023-07-09T09:42:17.157Z,3.70
2023-07-09T09:47:29.356Z,3.95
2023-07-09T09:52:35.305Z,3.85
2023-07-09T09:57:39.940Z,4.53
2023-07-09T10:02:46.791Z,5.55
2023-07-09T10:08:00.482Z,5.32
2023-07-09T10:13:13.101Z,3.83
2023-07-09T10:18:31.449Z,4.05
2023-07-09T10:23:41.440Z,3.70
2023-07-09T10:29:06.233Z,4.55
2023-07-09T10:34:21.495Z,5.57
2023-07-09T10:39:30.781Z,3.53
2023-07-09T10:44:38.639Z,3.42
2023-07-09T10:49:53.408Z,4.95
2023-07-09T10:55:04.831Z,4.68
2023-07-09T11:00:14.545Z,3.67
2023-07-09T11:05:20.161Z,4.55
2023-07-09T11:10:33.148Z,3.22
2023-07-09T11:15:40.140Z,3.10
2023-07-09T11:20:48.965Z,4.05
2023-07-09T11:26:03.965Z,3.53
2023-07-09T11:31:09.309Z,5.18
2023-07-09T11:36:17.866Z,3.50
2023-07-09T11:41:52.578Z,3.75
2023-07-09T11:47:17.854Z,4.57
2023-07-09T11:52:30.432Z,6.05
2023-07-09T11:57:34.813Z,4.20
2023-07-09T12:02:38.788Z,3.65
2023-07-09T12:07:43.894Z,5.25
2023-07-09T12:12:49.664Z,3.60
2023-07-09T12:17:59.089Z,5.57
2023-07-09T12:23:13.299Z,4.13
2023-07-09T12:28:17.675Z,4.53
2023-07-09T12:33:22.905Z,4.53
2023-07-09T12:38:31.224Z,4.55
2023-07-09T12:43:35.033Z,5.20
2023-07-09T12:48:38.745Z,4.75
2023-07-09T12:53:43.743Z,3.17
2023-07-09T12:58:47.308Z,4.63
2023-07-09T13:03:59.058Z,4.75
2023-07-09T13:09:08.212Z,4.45
2023-07-09T13:14:21.030Z,4.82
2023-07-09T13:19:24.657Z,4.47
2023-07-09T13:24:32.100Z,3.55
2023-07-09T13:29:36.568Z,4.63
2023-07-09T13:34:41.286Z,4.40
2023-07-09T13:39:46.884Z,5.65
2023-07-09T13:44:51.183Z,3.08
2023-07-09T13:49:55.061Z,4.43
2023-07-09T13:55:00.045Z,3.33
2023-07-09T14:00:05.365Z,4.63
2023-07-09T14:05:13.226Z,4.63
2023-07-09T14:10:20.059Z,6.07
2023-07-09T14:15:24.607Z,3.75
2023-07-09T14:20:28.315Z,4.13
2023-07-09T14:25:33.585Z,4.05
2023-07-09T14:30:37.561Z,5.05
2023-07-09T14:35:45.109Z,2.78
2023-07-09T14:40:52.085Z,3.85
2023-07-09T14:45:55.728Z,4.70
2023-07-09T14:50:59.420Z,3.20
2023-07-09T14:56:04.444Z,4.75
2023-07-09T15:01:21.915Z,5.78
2023-07-09T15:06:25.604Z,3.80
2023-07-09T15:11:30.987Z,4.00
2023-07-09T15:16:34.692Z,4.80
2023-07-09T15:21:38.393Z,3.90
2023-07-09T15:31:47.726Z,4.15
2023-07-09T15:36:53.343Z,3.60
2023-07-09T15:42:02.784Z,2.75
2023-07-09T15:47:07.967Z,3.58
2023-07-09T15:52:12.810Z,4.53
2023-07-09T15:57:36.631Z,3.05
2023-07-09T16:02:45.314Z,5.38
2023-07-09T16:07:49.407Z,3.95
2023-07-09T16:12:54.977Z,4.15
2023-07-09T16:17:58.799Z,5.63
2023-07-09T16:28:08.390Z,4.00
2023-07-09T16:33:18.161Z,4.43
2023-07-09T16:38:22.199Z,4.78
2023-07-09T16:43:27.189Z,2.97
2023-07-09T16:48:31.022Z,3.15
2023-07-09T16:53:35.497Z,5.15
2023-07-09T16:58:40.995Z,3.75
2023-07-09T17:03:44.666Z,3.85
2023-07-09T17:08:59.985Z,3.22
2023-07-09T17:14:05.046Z,2.80
2023-07-09T17:19:12.791Z,4.03
2023-07-09T17:24:27.550Z,4.78
2023-07-09T17:29:34.216Z,2.42
2023-07-09T17:34:39.852Z,2.70
2023-07-09T17:39:44.813Z,4.70
2023-07-09T17:44:49.983Z,5.57
2023-07-09T17:49:53.571Z,4.93
2023-07-09T17:54:58.155Z,7.38
2023-07-09T18:00:08.338Z,6.75
2023-07-09T18:05:31.055Z,3.47
2023-07-09T18:10:37.524Z,5.45
2023-07-09T18:15:44.445Z,7.30
2023-07-09T18:20:48.231Z,3.92
2023-07-09T18:25:52.527Z,3.47
2023-07-09T18:31:11.688Z,4.72
2023-07-09T18:36:26.077Z,4.20
2023-07-09T18:41:32.761Z,3.83
2023-07-09T18:46:38.255Z,3.50
2023-07-09T18:51:43.317Z,4.57
2023-07-09T18:56:49.752Z,6.30
2023-07-09T19:01:55.280Z,4.35
2023-07-09T19:06:59.276Z,3.90
2023-07-09T19:12:02.910Z,6.88
2023-07-09T19:17:11.973Z,4.75
2023-07-09T19:22:16.529Z,3.72
2023-07-09T19:27:20.108Z,3.17
2023-07-09T19:32:28.930Z,3.17
2023-07-09T19:37:32.840Z,6.07
2023-07-09T19:42:40.655Z,4.65
2023-07-09T19:47:48.295Z,4.43
2023-07-09T19:52:53.694Z,2.63
2023-07-09T19:57:57.295Z,3.55
2023-07-09T20:03:04.589Z,4.65
2023-07-09T20:08:15.654Z,4.28
2023-07-09T20:13:24.923Z,4.30
2023-07-09T20:18:30.128Z,3.55
2023-07-09T20:23:39.423Z,4.35
2023-07-09T20:28:43.422Z,3.60
2023-07-09T20:33:48.901Z,7.07
2023-07-09T20:38:52.491Z,2.92
2023-07-09T20:43:57.859Z,3.87
2023-07-09T20:49:02.841Z,5.15
2023-07-09T20:54:06.526Z,2.95
2023-07-09T20:59:33.935Z,5.50
2023-07-09T21:04:39.330Z,5.90
2023-07-09T21:09:43.186Z,5.57
2023-07-09T21:14:48.290Z,4.22
2023-07-09T21:19:54.158Z,4.20
2023-07-09T21:24:59.419Z,4.75
2023-07-09T21:30:03.078Z,5.82
2023-07-09T21:35:18.008Z,3.05
2023-07-09T21:40:28.885Z,5.00
2023-07-09T21:45:36.672Z,3.28
2023-07-09T21:50:42.117Z,3.20
2023-07-09T21:55:45.680Z,3.88
2023-07-09T22:00:55.918Z,3.00
2023-07-09T22:06:04.355Z,5.32
2023-07-09T22:11:22.857Z,5.20
2023-07-09T22:16:28.448Z,3.60
2023-07-09T22:21:34.514Z,5.00
2023-07-09T22:26:38.713Z,3.80
2023-07-09T22:31:43.974Z,3.80
2023-07-09T22:36:50.028Z,4.95
2023-07-09T22:41:54.013Z,4.88
2023-07-09T22:46:59.242Z,6.30
2023-07-09T22:52:04.418Z,4.90
2023-07-09T22:57:08.208Z,4.68
2023-07-09T23:02:13.974Z,5.43
2023-07-09T23:07:19.430Z,4.53
2023-07-09T23:12:23.297Z,6.80
2023-07-09T23:17:26.985Z,3.80
2023-07-09T23:22:32.555Z,5.30
2023-07-09T23:27:39.127Z,5.40
2023-07-09T23:32:42.862Z,4.47
2023-07-09T23:37:50.642Z,6.17
2023-07-09T23:42:55.356Z,4.50
2023-07-09T23:48:04.918Z,5.47
2023-07-09T23:53:24.491Z,4.18
2023-07-09T23:58:31.411Z,4.82
